Time;durP1;ratioP1;P1;durP2;ratioP2;P2;SDS_P1;SDS_P2;PMS_P1;PMS_P2;Temp;Humidity;BMP_temperature;BMP_pressure;BME280_temperature;BME280_humidity;BME280_pressure;Samples;Min_cycle;Max_cycle;Signal;HPM_P1;HPM_P2
2022/08/06 00:02:55;;;;;;;21.50;10.60;;;;;;;21.93;47.87;98757.73;107923;1274;110319;-66
2022/08/06 00:05:23;;;;;;;21.60;9.40;;;;;;;21.88;48.01;98755.12;107939;1274;97057;-66
2022/08/06 00:08:01;;;;;;;21.00;9.70;;;;;;;21.81;48.01;98754.27;107953;1274;98342;-66
2022/08/06 00:10:30;;;;;;;23.10;11.10;;;;;;;21.77;48.19;98757.94;107929;1273;113535;-66
2022/08/06 00:12:59;;;;;;;22.60;9.60;;;;;;;21.74;48.27;98759.40;107948;1274;97088;-66
2022/08/06 00:15:31;;;;;;;;;;;;;;;21.69;48.34;98757.17;107938;1274;107509;-66
2022/08/06 00:18:19;;;;;;;20.70;10.20;;;;;;;21.63;48.72;98756.23;107958;1274;97067;-65
2022/08/06 00:20:47;;;;;;;19.10;9.80;;;;;;;21.59;48.50;98751.73;107961;1274;97535;-64
2022/08/06 00:23:18;;;;;;;18.20;9.30;;;;;;;21.56;48.77;98752.45;107928;1274;113462;-65
2022/08/06 00:25:52;;;;;;;21.90;10.30;;;;;;;21.54;48.77;98751.45;107944;1274;97066;-66
2022/08/06 00:28:22;;;;;;;20.30;10.10;;;;;;;21.50;48.75;98751.71;107920;1274;107752;-65
2022/08/06 00:31:03;;;;;;;22.70;11.20;;;;;;;21.43;48.95;98745.38;107960;1274;97343;-65
2022/08/06 00:33:39;;;;;;;20.80;11.30;;;;;;;21.42;48.97;98754.22;107840;1274;97389;-66
2022/08/06 00:36:25;;;;;;;18.90;10.10;;;;;;;21.35;49.21;98748.52;107934;1274;112944;-66
2022/08/06 00:38:57;;;;;;;24.20;11.00;;;;;;;21.34;49.33;98758.05;107946;1274;97093;-65
2022/08/06 00:41:28;;;;;;;20.30;11.20;;;;;;;21.32;49.25;98753.52;107940;1273;107892;-65
2022/08/06 00:44:09;;;;;;;19.60;10.50;;;;;;;21.28;49.43;98754.30;107919;1274;97097;-65
2022/08/06 00:46:39;;;;;;;22.60;11.30;;;;;;;21.23;49.48;98752.58;107962;1274;98722;-66
2022/08/06 00:49:08;;;;;;;21.90;11.60;;;;;;;21.14;49.78;98752.73;107949;1274;112858;-66
2022/08/06 00:51:39;;;;;;;19.00;9.50;;;;;;;21.07;49.73;98757.36;107961;1274;97111;-65
2022/08/06 00:54:20;;;;;;;22.00;10.30;;;;;;;21.01;49.85;98757.48;107938;1274;107913;-65
2022/08/06 00:57:03;;;;;;;;;;;;;;;20.98;50.01;98754.54;107954;1274;97325;-65
2022/08/06 00:59:38;;;;;;;20.50;11.10;;;;;;;20.90;50.14;98757.42;107967;1274;96989;-65
2022/08/06 01:02:10;;;;;;;19.40;10.20;;;;;;;20.85;50.07;98754.61;107950;1274;112958;-65
2022/08/06 01:04:41;;;;;;;24.00;10.60;;;;;;;20.83;50.32;98748.75;107928;1274;97043;-65
2022/08/06 01:07:09;;;;;;;28.30;13.80;;;;;;;20.78;50.19;98748.73;107934;1274;107636;-65
2022/08/06 01:09:38;;;;;;;21.30;12.30;;;;;;;20.71;50.41;98742.98;107934;1274;97057;-65
2022/08/06 01:12:25;;;;;;;21.00;11.10;;;;;;;20.67;50.61;98744.94;107946;1274;97013;-65
2022/08/06 01:15:05;;;;;;;23.90;11.20;;;;;;;20.64;50.73;98741.69;107932;1274;112716;-64
2022/08/06 01:18:00;;;;;;;23.60;11.40;;;;;;;20.63;50.87;98738.25;107953;1274;97137;-65
2022/08/06 01:21:09;;;;;;;22.70;11.50;;;;;;;20.60;50.98;98734.81;107941;1272;108272;-65
2022/08/06 01:24:16;;;;;;;25.50;11.90;;;;;;;20.58;51.08;98738.02;107931;1274;96999;-65
2022/08/06 01:26:56;;;;;;;23.80;12.40;;;;;;;20.53;51.13;98745.80;107942;1274;97086;-65
2022/08/06 01:29:36;;;;;;;22.30;12.10;;;;;;;20.51;51.19;98741.69;107952;1274;112918;-66
2022/08/06 01:32:20;;;;;;;21.00;11.70;;;;;;;20.49;51.37;98743.20;107932;1274;96972;-66
2022/08/06 01:34:55;;;;;;;23.30;12.80;;;;;;;20.48;51.47;98738.95;107931;1274;107867;-65
2022/08/06 01:37:59;;;;;;;23.80;12.80;;;;;;;20.48;51.50;98738.83;107824;1274;97006;-65
2022/08/06 01:40:32;;;;;;;25.10;13.30;;;;;;;20.44;51.67;98735.14;107966;1274;97031;-66
2022/08/06 01:43:06;;;;;;;25.40;12.40;;;;;;;20.41;51.72;98738.14;107948;1274;112830;-66
2022/08/06 01:45:56;;;;;;;25.10;12.90;;;;;;;20.40;51.97;98735.45;107938;1274;97061;-65
2022/08/06 01:48:27;;;;;;;21.00;12.30;;;;;;;20.39;51.90;98736.59;107911;1274;107959;-64
2022/08/06 01:50:58;;;;;;;;;;;;;;;20.38;52.14;98735.30;107940;1274;96958;-65
2022/08/06 01:53:34;;;;;;;25.10;12.70;;;;;;;20.34;52.23;98733.32;107968;1274;96891;-64
2022/08/06 01:56:23;;;;;;;21.30;12.00;;;;;;;20.31;52.22;98736.81;107953;1274;113045;-65
2022/08/06 01:59:03;;;;;;;19.50;10.70;;;;;;;20.31;52.27;98740.54;107974;1274;97348;-64
2022/08/06 02:01:39;;;;;;;20.90;11.30;;;;;;;20.27;52.35;98744.35;107912;1274;107666;-64
2022/08/06 02:04:25;;;;;;;21.30;11.40;;;;;;;20.23;52.47;98748.21;107954;1274;97083;-65
2022/08/06 02:06:56;;;;;;;22.70;11.60;;;;;;;20.20;52.48;98747.02;107973;1274;97409;-65
2022/08/06 02:09:26;;;;;;;19.70;10.40;;;;;;;20.17;52.51;98751.79;107811;1276;113586;-65
2022/08/06 02:12:09;;;;;;;21.90;10.70;;;;;;;20.13;52.56;98748.86;107973;1274;97485;-65
2022/08/06 02:14:42;;;;;;;23.10;11.00;;;;;;;20.07;52.56;98747.89;107935;1274;107909;-65
2022/08/06 02:17:16;;;;;;;20.50;11.30;;;;;;;20.03;52.75;98742.41;107925;1274;97009;-65
2022/08/06 02:20:07;;;;;;;19.00;10.90;;;;;;;20.00;52.81;98740.89;107973;1274;96883;-65
2022/08/06 02:22:46;;;;;;;22.00;11.40;;;;;;;19.95;52.90;98738.37;107958;1274;112764;-65
2022/08/06 02:25:16;;;;;;;21.10;11.20;;;;;;;19.92;52.97;98741.55;107959;1274;96948;-65
2022/08/06 02:27:59;;;;;;;21.70;10.70;;;;;;;19.88;52.89;98739.91;107958;1274;107765;-64
2022/08/06 02:30:34;;;;;;;21.90;11.10;;;;;;;19.83;53.05;98740.69;107951;1274;96988;-64
2022/08/06 02:33:05;;;;;;;23.20;11.10;;;;;;;19.78;53.14;98740.84;107972;1274;96913;-65
2022/08/06 02:35:45;;;;;;;21.60;10.70;;;;;;;19.75;53.26;98735.45;107933;1274;112934;-64
2022/08/06 02:38:53;;;;;;;20.30;10.60;;;;;;;19.72;53.32;98730.95;107972;1274;96959;-65
2022/08/06 02:41:32;;;;;;;20.10;10.40;;;;;;;19.66;53.47;98730.34;107620;1276;107625;-65
2022/08/06 02:44:12;;;;;;;21.30;11.10;;;;;;;19.64;53.46;98729.22;107964;1274;96978;-65
2022/08/06 02:47:06;;;;;;;20.40;9.80;;;;;;;19.64;53.69;98732.89;107964;1274;96911;-64
2022/08/06 02:49:50;;;;;;;21.50;10.70;;;;;;;19.62;53.76;98732.59;107979;1272;112941;-65
2022/08/06 02:52:48;;;;;;;21.30;11.00;;;;;;;19.60;53.78;98731.73;107965;1274;97079;-65
2022/08/06 02:55:30;;;;;;;20.90;11.10;;;;;;;19.56;53.87;98732.92;107945;1274;107013;-65
2022/08/06 02:58:11;;;;;;;25.00;10.70;;;;;;;19.54;54.01;98737.91;107964;1274;97385;-65
2022/08/06 03:00:46;;;;;;;22.90;10.10;;;;;;;19.53;54.21;98734.95;107958;1274;96915;-66
2022/08/06 03:03:22;;;;;;;21.50;11.00;;;;;;;19.53;54.15;98737.27;107955;1274;112817;-65
2022/08/06 03:06:04;;;;;;;;;;;;;;;19.49;54.38;98737.16;107991;1274;96964;-66
2022/08/06 03:08:35;;;;;;;22.00;10.20;;;;;;;19.51;54.36;98746.85;107937;1274;107528;-65
2022/08/06 03:11:05;;;;;;;18.30;9.60;;;;;;;19.50;54.34;98744.11;107949;1274;97012;-65
2022/08/06 03:13:34;;;;;;;20.70;10.10;;;;;;;19.48;54.34;98738.75;107986;1274;97067;-66
2022/08/06 03:16:05;;;;;;;18.20;9.80;;;;;;;19.48;54.48;98743.23;107940;1274;112086;-65
2022/08/06 03:18:53;;;;;;;22.00;10.20;;;;;;;19.45;54.52;98743.35;107874;1274;96998;-65
2022/08/06 03:21:43;;;;;;;22.00;10.00;;;;;;;19.42;54.50;98746.42;107943;1274;107870;-65
2022/08/06 03:24:26;;;;;;;21.90;9.90;;;;;;;19.38;54.44;98746.36;107934;1274;96984;-65
2022/08/06 03:26:58;;;;;;;20.00;9.80;;;;;;;19.34;54.59;98742.68;107978;1274;96940;-65
2022/08/06 03:29:27;;;;;;;20.60;9.60;;;;;;;19.31;54.53;98751.25;107956;1274;112972;-65
2022/08/06 03:31:57;;;;;;;18.50;9.50;;;;;;;19.27;54.60;98748.54;107970;1274;97027;-65
2022/08/06 03:34:46;;;;;;;18.60;9.60;;;;;;;19.22;54.77;98746.89;107942;1274;107840;-65
2022/08/06 03:37:17;;;;;;;20.70;10.40;;;;;;;19.18;54.90;98755.21;107945;1274;96974;-65
2022/08/06 03:39:49;;;;;;;20.20;10.10;;;;;;;19.15;54.91;98746.77;107989;1274;96951;-64
2022/08/06 03:42:20;;;;;;;18.70;9.60;;;;;;;19.12;54.93;98749.68;107947;1274;112871;-65
2022/08/06 03:45:04;;;;;;;18.50;9.40;;;;;;;19.09;54.94;98747.67;107953;1274;96903;-64
2022/08/06 03:47:39;;;;;;;19.80;10.40;;;;;;;19.05;55.02;98741.65;107910;1273;107111;-66
2022/08/06 03:50:32;;;;;;;20.60;10.90;;;;;;;19.04;55.26;98753.24;106998;1274;1259434;-65
2022/08/06 03:53:06;;;;;;;19.90;10.60;;;;;;;19.02;55.36;98762.95;107837;1275;96943;-65
2022/08/06 03:55:40;;;;;;;20.50;11.10;;;;;;;19.00;55.38;98763.34;107935;1274;112682;-65
2022/08/06 03:58:11;;;;;;;21.80;10.70;;;;;;;18.99;55.44;98769.55;107965;1274;97455;-65
2022/08/06 04:01:12;;;;;;;20.60;11.20;;;;;;;18.98;55.68;98769.20;107961;1274;107664;-66
2022/08/06 04:03:41;;;;;;;18.40;10.70;;;;;;;19.00;55.68;98775.63;107961;1274;96944;-66
2022/08/06 04:06:10;;;;;;;21.40;10.80;;;;;;;18.99;55.63;98775.61;107962;1274;96953;-65
2022/08/06 04:08:47;;;;;;;20.50;10.80;;;;;;;19.01;55.97;98777.06;107939;1274;112813;-66
2022/08/06 04:11:16;;;;;;;20.00;10.70;;;;;;;19.04;56.06;98775.85;107643;1278;97078;-66
2022/08/06 04:14:05;;;;;;;20.00;11.00;;;;;;;19.06;56.10;98773.11;107950;1274;107962;-65
2022/08/06 04:16:36;;;;;;;19.80;10.80;;;;;;;19.11;56.06;98782.27;107939;1274;96997;-65
2022/08/06 04:19:06;;;;;;;21.20;11.10;;;;;;;19.13;56.02;98787.96;107968;1274;96929;-66
2022/08/06 04:21:39;;;;;;;21.80;10.90;;;;;;;19.12;56.20;98785.96;107949;1274;111719;-66
2022/08/06 04:24:27;;;;;;;20.10;10.50;;;;;;;19.13;56.48;98790.15;107954;1274;97005;-66
2022/08/06 04:27:02;;;;;;;21.40;11.10;;;;;;;19.18;56.56;98792.80;107953;1274;106861;-66
2022/08/06 04:29:38;;;;;;;20.60;10.90;;;;;;;19.23;56.64;98788.35;107954;1274;97395;-66
2022/08/06 04:32:26;;;;;;;23.70;13.80;;;;;;;19.29;56.44;98792.77;107877;1274;97421;-65
2022/08/06 04:34:57;;;;;;;29.80;18.50;;;;;;;19.32;56.44;98798.55;107862;1274;112753;-65
2022/08/06 04:37:45;;;;;;;29.70;17.60;;;;;;;19.32;56.73;98797.35;107980;1274;97001;-65
2022/08/06 04:40:20;;;;;;;28.00;16.90;;;;;;;19.37;56.90;98800.94;107954;1274;106813;-66
2022/08/06 04:43:05;;;;;;;27.30;16.10;;;;;;;19.42;57.18;98803.61;107956;1274;97007;-66
2022/08/06 04:45:37;;;;;;;28.60;17.30;;;;;;;19.43;57.05;98798.79;107986;1274;96902;-66
2022/08/06 04:48:26;;;;;;;27.60;16.60;;;;;;;19.54;57.29;98800.50;107951;1274;112842;-65
2022/08/06 04:51:07;;;;;;;27.90;16.60;;;;;;;19.60;57.47;98802.20;107847;1275;97403;-65
2022/08/06 04:53:44;;;;;;;26.10;16.30;;;;;;;19.68;57.44;98801.36;107959;1274;109105;-65
2022/08/06 04:56:24;;;;;;;27.00;16.20;;;;;;;19.76;57.61;98805.42;107922;1274;97061;-66
2022/08/06 04:59:05;;;;;;;24.80;14.60;;;;;;;19.85;57.70;98806.48;107943;1274;96993;-65
2022/08/06 05:01:35;;;;;;;25.80;15.70;;;;;;;19.92;57.70;98814.44;107920;1274;112495;-65
2022/08/06 05:04:23;;;;;;;24.40;14.30;;;;;;;20.00;57.82;98818.56;107936;1274;97547;-66
2022/08/06 05:07:01;;;;;;;24.80;14.00;;;;;;;20.07;57.84;98816.16;107914;1274;108133;-67
2022/08/06 05:09:31;;;;;;;26.30;13.60;;;;;;;20.15;57.87;98813.95;107912;1274;97026;-66
2022/08/06 05:12:23;;;;;;;21.60;12.60;;;;;;;20.22;57.94;98812.73;107966;1274;97441;-66
2022/08/06 05:14:58;;;;;;;21.70;12.80;;;;;;;20.28;58.05;98807.06;107930;1274;112790;-65
2022/08/06 05:17:31;;;;;;;22.60;12.50;;;;;;;20.38;58.06;98814.88;107900;1274;97398;-66
2022/08/06 05:20:11;;;;;;;22.10;12.90;;;;;;;20.45;58.17;98814.20;107937;1274;107825;-65
2022/08/06 05:23:02;;;;;;;23.10;11.60;;;;;;;20.54;58.26;98814.27;107935;1274;97004;-66
2022/08/06 05:25:36;;;;;;;21.20;11.90;;;;;;;20.62;58.31;98820.20;107838;1274;97049;-65
2022/08/06 05:28:05;;;;;;;21.90;10.60;;;;;;;20.70;58.23;98818.40;107930;1274;112836;-66
2022/08/06 05:30:43;;;;;;;27.20;13.80;;;;;;;20.76;57.95;98816.25;107937;1274;97338;-67
2022/08/06 05:33:27;;;;;;;32.80;20.60;;;;;;;20.85;57.95;98817.56;107740;1275;107863;-67
2022/08/06 05:36:01;;;;;;;38.60;24.10;;;;;;;20.92;58.13;98820.96;107921;1274;97015;-65
2022/08/06 05:38:40;;;;;;;40.80;25.00;;;;;;;21.00;58.16;98818.95;107959;1274;96951;-65
2022/08/06 05:41:30;;;;;;;31.00;18.10;;;;;;;21.11;58.70;98823.77;107940;1274;112919;-66
2022/08/06 05:44:04;;;;;;;25.20;13.20;;;;;;;21.21;58.46;98823.49;107905;1274;97041;-66
2022/08/06 05:47:13;;;;;;;21.70;11.90;;;;;;;21.29;58.28;98826.88;107931;1274;107853;-66
2022/08/06 05:49:44;;;;;;;22.60;12.30;;;;;;;21.38;58.27;98826.11;107701;1274;97109;-65
2022/08/06 05:52:31;;;;;;;23.80;11.80;;;;;;;21.48;58.53;98824.96;107933;1274;97040;-65
2022/08/06 05:55:03;;;;;;;22.20;11.60;;;;;;;21.56;58.60;98832.20;107929;1274;112403;-66
2022/08/06 05:57:51;;;;;;;22.30;12.50;;;;;;;21.63;58.46;98835.00;107816;1276;97105;-66
2022/08/06 06:00:25;;;;;;;27.80;13.20;;;;;;;21.70;58.57;98832.86;107917;1274;108213;-65
2022/08/06 06:03:16;;;;;;;24.80;14.70;;;;;;;21.82;58.59;98843.61;107959;1274;96981;-70
2022/08/06 06:05:57;;;;;;;20.50;11.90;;;;;;;21.87;58.82;98831.55;107991;1274;97050;-69
2022/08/06 06:08:43;;;;;;;20.90;12.20;;;;;;;22.00;58.81;98839.08;107953;1274;112616;-68
2022/08/06 06:11:29;;;;;;;20.00;11.50;;;;;;;22.08;58.77;98845.69;107983;1274;97052;-76
2022/08/06 06:14:29;;;;;;;20.10;11.50;;;;;;;22.17;58.83;98846.04;107858;1274;107772;-77
2022/08/06 06:17:06;;;;;;;19.30;10.60;;;;;;;22.25;58.85;98844.66;107906;1274;96979;-72
2022/08/06 06:20:05;;;;;;;17.90;10.40;;;;;;;22.33;58.87;98844.65;107978;1274;96971;-75
2022/08/06 06:22:51;;;;;;;20.80;10.80;;;;;;;22.40;58.97;98842.64;107843;1274;111866;-72
2022/08/06 06:25:35;;;;;;;22.30;10.60;;;;;;;22.50;58.80;98847.59;107940;1274;97047;-71
2022/08/06 06:28:24;;;;;;;21.10;10.60;;;;;;;22.62;59.21;98854.95;107927;1274;107798;-71
2022/08/06 06:31:01;;;;;;;21.30;11.20;;;;;;;22.70;59.03;98853.21;107939;1274;97058;-72
2022/08/06 06:33:42;;;;;;;21.80;10.60;;;;;;;22.84;59.25;98864.13;107921;1274;97340;-69
2022/08/06 06:36:24;;;;;;;21.70;10.60;;;;;;;22.95;58.95;98863.89;107920;1274;112880;-69
2022/08/06 06:39:02;;;;;;;16.00;9.10;;;;;;;23.06;59.14;98861.84;107863;1274;97383;-69
2022/08/06 06:41:51;;;;;;;17.00;9.40;;;;;;;23.19;58.89;98863.23;107881;1274;107209;-67
2022/08/06 06:44:39;;;;;;;19.80;10.10;;;;;;;23.32;58.88;98871.35;107765;1275;97162;-69
2022/08/06 06:47:51;;;;;;;23.20;10.80;;;;;;;23.46;59.03;98875.48;107968;1274;97031;-70
2022/08/06 06:50:32;;;;;;;21.00;11.20;;;;;;;23.57;59.11;98875.37;107868;1274;112747;-69
2022/08/06 06:53:05;;;;;;;22.80;11.70;;;;;;;23.68;58.96;98873.83;107962;1274;97453;-71
2022/08/06 06:55:47;;;;;;;22.90;10.80;;;;;;;23.76;59.12;98871.98;107949;1274;107755;-74
2022/08/06 06:58:31;;;;;;;18.30;10.10;;;;;;;23.86;59.10;98870.14;107831;1274;97121;-70
2022/08/06 07:01:01;;;;;;;22.60;11.50;;;;;;;23.94;59.12;98872.55;107985;1274;97063;-72
2022/08/06 07:03:50;;;;;;;19.40;11.10;;;;;;;24.04;59.03;98875.75;107974;1274;113439;-72
2022/08/06 07:06:19;;;;;;;22.80;11.20;;;;;;;24.15;58.87;98876.54;107975;1274;97281;-73
2022/08/06 07:09:08;;;;;;;23.90;11.00;;;;;;;24.27;58.94;98880.78;107981;1274;107624;-73
2022/08/06 07:11:48;;;;;;;19.60;10.30;;;;;;;24.39;58.96;98880.81;107968;1274;97005;-72
2022/08/06 07:14:34;;;;;;;19.20;10.30;;;;;;;25.13;58.06;98881.13;107871;1276;97293;-71
2022/08/06 07:17:04;;;;;;;18.50;9.90;;;;;;;26.78;57.17;98893.91;107789;1274;112687;-71
2022/08/06 07:19:54;;;;;;;24.40;9.40;;;;;;;28.40;56.84;98892.23;107759;1276;97411;-70
2022/08/06 07:22:23;;;;;;;17.30;8.90;;;;;;;29.85;56.67;98892.88;107951;1274;109020;-73
2022/08/06 07:24:59;;;;;;;18.30;9.50;;;;;;;31.09;56.24;98898.60;107982;1274;97027;-71
2022/08/06 07:27:33;;;;;;;20.20;9.40;;;;;;;32.41;56.00;98894.70;107996;1274;97322;-71
2022/08/06 07:30:14;;;;;;;16.60;8.70;;;;;;;33.77;55.88;98893.64;107997;1274;112725;-71
2022/08/06 07:32:44;;;;;;;17.50;8.10;;;;;;;34.97;55.21;98900.58;107898;1274;97404;-71
2022/08/06 07:35:19;;;;;;;14.90;7.50;;;;;;;35.93;54.82;98907.13;107985;1274;107410;-70
2022/08/06 07:37:56;;;;;;;18.60;8.00;;;;;;;36.85;54.42;98905.80;107870;1274;97085;-80
2022/08/06 07:40:31;;;;;;;18.70;8.00;;;;;;;37.51;53.45;98910.30;108011;1274;96983;-71
2022/08/06 07:43:10;;;;;;;13.60;7.60;;;;;;;38.33;53.76;98915.56;107892;1274;112854;-67
2022/08/06 07:45:54;;;;;;;14.90;7.60;;;;;;;39.05;52.62;98920.19;107994;1274;97453;-70
2022/08/06 07:48:43;;;;;;;12.40;7.70;;;;;;;39.54;51.77;98924.56;108003;1274;107660;-71
2022/08/06 07:51:23;;;;;;;13.80;8.30;;;;;;;40.10;51.15;98929.48;107884;1274;97463;-68
2022/08/06 07:54:03;;;;;;;19.30;8.70;;;;;;;40.46;50.13;98944.64;108023;1274;97013;-71
2022/08/06 07:56:41;;;;;;;15.10;7.60;;;;;;;40.40;48.72;98952.20;107937;1274;112720;-71
2022/08/06 07:59:29;;;;;;;18.40;8.20;;;;;;;40.66;48.96;98946.98;107977;1274;97534;-71
2022/08/06 08:02:04;;;;;;;15.00;8.50;;;;;;;41.01;48.04;98948.86;107967;1274;107978;-71
2022/08/06 08:07:22;;;;;;;18.10;9.20;;;;;;;41.94;46.34;98956.27;107965;1274;97081;-75
2022/08/06 08:10:11;;;;;;;16.70;8.70;;;;;;;42.54;45.53;98956.79;107984;1274;112758;-75
2022/08/06 08:12:43;;;;;;;15.90;9.20;;;;;;;42.81;44.98;98951.52;107861;1275;97853;-74
2022/08/06 08:15:19;;;;;;;19.90;8.80;;;;;;;43.00;44.73;98961.10;107975;1274;107732;-72
2022/08/06 08:17:50;;;;;;;17.60;8.40;;;;;;;43.12;43.82;98962.20;107981;1274;97033;-75
2022/08/06 08:20:28;;;;;;;14.60;8.50;;;;;;;42.86;42.88;98962.01;108002;1274;97000;-77
2022/08/06 08:23:06;;;;;;;15.00;8.20;;;;;;;42.54;41.94;98968.11;107996;1274;112453;-80
2022/08/06 08:25:51;;;;;;;18.10;8.70;;;;;;;42.23;41.47;98974.11;108010;1274;97598;-80
2022/08/06 08:28:19;;;;;;;15.60;9.20;;;;;;;41.99;40.92;98981.07;107970;1274;109015;-76
2022/08/06 08:30:47;;;;;;;19.40;9.20;;;;;;;41.65;40.55;98984.34;107978;1274;97067;-78
2022/08/06 08:33:20;;;;;;;14.50;8.50;;;;;;;41.39;39.87;98986.36;108011;1274;96978;-83
2022/08/06 08:35:49;;;;;;;18.20;9.50;;;;;;;41.07;39.50;98992.69;108004;1274;112854;-76
2022/08/06 08:38:33;;;;;;;16.40;9.50;;;;;;;40.73;39.04;98991.31;108013;1274;96975;-81
2022/08/06 08:41:15;;;;;;;20.00;9.30;;;;;;;40.75;38.97;98996.58;107985;1274;107856;-79
2022/08/06 08:44:02;;;;;;;19.90;10.60;;;;;;;40.84;38.31;99000.14;108005;1274;97008;-76
2022/08/06 08:46:43;;;;;;;19.70;9.90;;;;;;;40.49;37.73;99000.83;108009;1274;97025;-87
2022/08/06 08:49:34;;;;;;;20.60;9.90;;;;;;;40.34;37.49;99001.48;107993;1274;112426;-83
2022/08/06 08:52:08;;;;;;;18.20;10.20;;;;;;;40.44;36.95;99000.91;107878;1274;97420;-80
2022/08/06 08:54:45;;;;;;;18.80;9.50;;;;;;;40.36;36.96;99006.50;107795;1274;107873;-79
2022/08/06 08:57:15;;;;;;;20.00;10.60;;;;;;;40.38;36.56;99011.64;107931;1274;97479;-74
2022/08/06 09:00:06;;;;;;;17.40;9.90;;;;;;;40.27;36.01;99016.11;107956;1274;96971;-79
2022/08/06 09:02:38;;;;;;;16.20;8.90;;;;;;;39.99;35.78;99009.64;107984;1274;112864;-77
2022/08/06 09:05:17;;;;;;;16.80;9.30;;;;;;;39.72;35.30;99010.65;107990;1274;97605;-77
2022/08/06 09:07:46;;;;;;;19.20;9.40;;;;;;;39.44;35.08;99011.77;107816;1274;108289;-76
2022/08/06 09:10:29;;;;;;;17.80;9.50;;;;;;;39.18;35.01;99009.95;107917;1274;97042;-76
2022/08/06 09:13:00;;;;;;;18.10;8.90;;;;;;;39.06;34.88;99001.89;108026;1274;96994;-74
2022/08/06 09:15:29;;;;;;;21.10;9.50;;;;;;;39.00;34.48;99015.23;107922;1274;111056;-86
2022/08/06 09:18:06;;;;;;;18.30;9.00;;;;;;;38.49;34.22;99016.14;107921;1274;97630;-77
2022/08/06 09:20:54;;;;;;;16.70;9.80;;;;;;;38.03;34.17;99016.25;107935;1274;107355;-74
2022/08/06 09:23:25;;;;;;;18.50;8.70;;;;;;;37.87;34.36;99018.47;107925;1274;97034;-79
2022/08/06 09:26:05;;;;;;;18.70;8.40;;;;;;;37.89;34.04;99020.05;107938;1274;97348;-73
2022/08/06 09:28:42;;;;;;;16.30;9.50;;;;;;;37.74;33.61;99022.44;107971;1274;113498;-75
2022/08/06 09:31:14;;;;;;;16.10;9.00;;;;;;;37.20;33.81;99018.69;107960;1274;97692;-74
2022/08/06 09:34:04;;;;;;;16.30;8.30;;;;;;;36.98;33.73;99015.92;107942;1274;107725;-75
2022/08/06 09:36:52;;;;;;;17.70;9.10;;;;;;;37.05;33.58;99012.54;107968;1274;97022;-78
2022/08/06 09:39:41;;;;;;;20.10;10.40;;;;;;;37.08;33.53;99019.30;107940;1274;97037;-75
2022/08/06 09:42:42;;;;;;;15.40;9.20;;;;;;;37.44;33.89;99018.06;107806;1274;112484;-75
2022/08/06 09:45:13;;;;;;;14.50;8.70;;;;;;;37.79;33.87;99015.71;107929;1274;97452;-75
2022/08/06 09:48:00;;;;;;;16.20;7.90;;;;;;;38.11;33.54;99022.05;107814;1274;107705;-75
2022/08/06 09:50:42;;;;;;;15.70;7.90;;;;;;;37.91;33.44;99023.98;107836;1274;97074;-80
2022/08/06 09:53:13;;;;;;;13.90;8.00;;;;;;;37.72;33.34;99023.89;107876;1274;97067;-82
2022/08/06 09:55:49;;;;;;;19.70;8.60;;;;;;;37.64;33.26;99016.71;107963;1273;113457;-80
2022/08/06 09:58:37;;;;;;;15.10;8.00;;;;;;;37.60;33.33;99023.95;107963;1274;97651;-74
2022/08/06 10:01:13;;;;;;;16.20;8.70;;;;;;;37.58;33.17;99020.98;107895;1274;107671;-75
2022/08/06 10:03:52;;;;;;;13.90;8.10;;;;;;;37.18;32.94;99023.74;107855;1274;97471;-66
2022/08/06 10:06:51;;;;;;;17.40;8.60;;;;;;;36.43;33.27;99030.55;107993;1274;97010;-70
2022/08/06 10:09:23;;;;;;;21.10;9.50;;;;;;;35.75;33.20;99032.80;107939;1274;114239;-72
2022/08/06 10:12:22;;;;;;;22.80;9.60;;;;;;;35.32;33.56;99037.73;107942;1274;97545;-73
2022/08/06 10:14:53;;;;;;;;;;;;;;;34.91;33.34;99042.71;107869;1274;107739;-79
2022/08/06 10:17:23;;;;;;;26.80;10.00;;;;;;;34.41;33.45;99044.31;107928;1274;97025;-83
2022/08/06 10:20:10;;;;;;;28.10;10.80;;;;;;;33.96;33.34;99048.42;107881;1274;97135;-80
2022/08/06 10:22:57;;;;;;;21.10;9.90;;;;;;;33.52;33.71;99050.44;107934;1274;112747;-78
2022/08/06 10:25:29;;;;;;;22.40;10.80;;;;;;;33.15;33.94;99060.11;107970;1274;99240;-75
2022/08/06 10:28:05;;;;;;;24.70;11.60;;;;;;;32.91;34.13;99061.00;107947;1274;109539;-77
2022/08/06 10:30:34;;;;;;;20.00;11.80;;;;;;;32.80;34.49;99073.79;107991;1274;97098;-75
2022/08/06 10:33:06;;;;;;;23.10;11.10;;;;;;;32.63;34.13;99075.14;107992;1274;97009;-82
2022/08/06 10:35:57;;;;;;;24.80;11.60;;;;;;;32.13;34.50;99072.49;107871;1274;112528;-79
2022/08/06 10:38:35;;;;;;;22.80;11.50;;;;;;;31.81;34.52;99081.61;108019;1274;97038;-76
2022/08/06 10:41:13;;;;;;;23.70;11.40;;;;;;;31.46;34.79;99083.84;107922;1274;107736;-78
2022/08/06 10:44:04;;;;;;;32.30;12.60;;;;;;;31.08;35.18;99083.11;107961;1274;97314;-69
2022/08/06 10:46:35;;;;;;;21.80;12.20;;;;;;;30.89;35.28;99089.92;107956;1274;96942;-69
2022/08/06 10:49:05;;;;;;;21.70;12.60;;;;;;;30.64;35.52;99091.79;107923;1274;113518;-71
2022/08/06 10:51:54;;;;;;;20.60;12.40;;;;;;;30.41;35.94;99093.48;107958;1274;97412;-79
2022/08/06 10:54:27;;;;;;;21.20;12.70;;;;;;;30.18;36.08;99097.78;107933;1274;107822;-83
2022/08/06 10:56:55;;;;;;;23.90;13.10;;;;;;;30.12;36.34;99102.91;107965;1274;97369;-79
2022/08/06 10:59:24;;;;;;;23.30;13.50;;;;;;;29.95;36.48;99106.29;107811;1276;97540;-82
2022/08/06 11:02:32;;;;;;;25.10;13.60;;;;;;;29.76;37.07;99112.26;107931;1274;112790;-79
2022/08/06 11:05:06;;;;;;;27.20;14.70;;;;;;;29.70;37.09;99111.50;107939;1274;97502;-81
2022/08/06 11:08:09;;;;;;;21.80;13.00;;;;;;;29.64;37.38;99115.56;107906;1274;107814;-80
2022/08/06 11:11:05;;;;;;;20.00;11.50;;;;;;;29.53;37.54;99115.85;107917;1274;97031;-77
2022/08/06 11:13:52;;;;;;;20.60;12.30;;;;;;;29.38;37.73;99120.94;107958;1274;97060;-77
2022/08/06 11:16:29;;;;;;;22.10;11.60;;;;;;;29.29;37.85;99123.20;107927;1274;112579;-80
2022/08/06 11:19:07;;;;;;;17.20;9.60;;;;;;;29.17;38.18;99125.41;107958;1274;97463;-76
2022/08/06 11:21:45;;;;;;;18.40;9.60;;;;;;;29.05;38.55;99122.84;107945;1274;107740;-76
2022/08/06 11:24:30;;;;;;;16.70;9.30;;;;;;;29.02;38.90;99120.45;107942;1274;97093;-79
2022/08/06 11:27:25;;;;;;;17.10;8.40;;;;;;;28.97;38.95;99119.05;107968;1272;97026;-74
2022/08/06 11:30:10;;;;;;;19.50;8.40;;;;;;;28.95;39.06;99118.74;107944;1274;112390;-76
2022/08/06 11:32:44;;;;;;;19.80;9.80;;;;;;;28.93;39.40;99120.16;107953;1274;97500;-77
2022/08/06 11:35:33;;;;;;;17.50;8.10;;;;;;;28.89;39.62;99114.36;107925;1274;107498;-77
2022/08/06 11:38:35;;;;;;;;;;;;;;;28.84;39.62;99124.69;107938;1274;96977;-77
2022/08/06 11:41:08;;;;;;;12.10;6.70;;;;;;;28.72;39.75;99129.89;107892;1274;97372;-77
2022/08/06 11:43:51;;;;;;;15.30;7.00;;;;;;;28.55;39.97;99126.66;107838;1274;112422;-78
2022/08/06 11:46:35;;;;;;;14.70;7.10;;;;;;;28.49;40.26;99129.55;107891;1274;97539;-77
2022/08/06 11:49:14;;;;;;;12.60;6.50;;;;;;;28.41;40.46;99135.14;107863;1274;107611;-77
2022/08/06 11:51:57;;;;;;;12.20;6.70;;;;;;;28.34;40.38;99131.52;107896;1274;97093;-78
2022/08/06 11:55:01;;;;;;;17.00;6.60;;;;;;;28.22;40.65;99133.71;107961;1274;97073;-77
2022/08/06 11:57:29;;;;;;;12.60;5.90;;;;;;;28.11;40.46;99140.20;107733;1276;112573;-77
2022/08/06 12:00:18;;;;;;;15.50;5.60;;;;;;;28.06;40.97;99136.58;107964;1274;97567;-68
2022/08/06 12:02:53;;;;;;;10.10;5.60;;;;;;;28.05;40.82;99133.94;107914;1274;108164;-68
2022/08/06 12:05:23;;;;;;;11.90;5.50;;;;;;;28.01;41.31;99131.44;107846;1274;97040;-67
2022/08/06 12:08:19;;;;;;;8.80;5.20;;;;;;;28.00;41.43;99135.91;107955;1274;96995;-68
2022/08/06 12:11:28;;;;;;;10.60;5.10;;;;;;;27.91;41.39;99135.81;107958;1274;112988;-68
2022/08/06 12:14:03;;;;;;;10.20;4.70;;;;;;;27.78;41.92;99135.25;107922;1274;98384;-68